This is the latest recevied weather packets stored in our database for station/object W6SNO-1. If no packets are shown the sender has not sent any weather packets the latest 10 day(s).
| Time | Temp. | Humidity | Pressure | Rain* | Wind** | Luminosity | Snow |
|---|---|---|---|---|---|---|---|
| 1787686628 | 25° C | 55% | 1017.1 hPa | 0 mm | - | 651 W/m² | - |
| 1787686323 | 25.56° C | 54% | 1017.1 hPa | 0 mm | - | 768 W/m² | - |
| 1787686018 | 25.56° C | 55% | 1017.3 hPa | 0 mm | - | 760 W/m² | - |
| 1787685714 | 25° C | 57% | 1017.4 hPa | 0 mm | - | 586 W/m² | - |
| 1787685413 | 25.56° C | 56% | 1017.3 hPa | 0 mm | - | 675 W/m² | - |
| 1787685113 | 24.44° C | 58% | 1017.3 hPa | 0 mm | - | 720 W/m² | - |
| 1787684809 | 24.44° C | 57% | 1017.6 hPa | 0 mm | - | 720 W/m² | - |
| 1787684508 | 24.44° C | 57% | 1017.4 hPa | 0 mm | - | 719 W/m² | - |
| 1787684203 | 23.89° C | 60% | 1017.7 hPa | 0 mm | - | 711 W/m² | - |
| 1787683898 | 23.89° C | 60% | 1017.6 hPa | 0 mm | - | 708 W/m² | - |
| 1787683593 | 23.33° C | 61% | 1017.7 hPa | 0 mm | - | 702 W/m² | - |
| 1787683288 | 23.89° C | 61% | 1017.7 hPa | 0 mm | - | 695 W/m² | - |
| 1787682986 | 23.89° C | 62% | 1018 hPa | 0 mm | - | 689 W/m² | - |
| 1787682681 | 23.89° C | 61% | 1017.7 hPa | 0 mm | - | 678 W/m² | - |
| 1787682377 | 23.33° C | 62% | 1018.1 hPa | 0 mm | - | 663 W/m² | - |
| 1787682073 | 22.78° C | 64% | 1017.7 hPa | 0 mm | - | 654 W/m² | - |
| 1787681768 | 22.78° C | 64% | 1017.9 hPa | 0 mm | - | 654 W/m² | - |
| 1787681468 | 22.22° C | 65% | 1017.8 hPa | 0 mm | - | 647 W/m² | - |
| 1787679950 | 21.11° C | 69% | 1018 hPa | 0 mm | - | 578 W/m² | - |
| 1787679644 | 21.11° C | 69% | 1017.9 hPa | 0 mm | - | 578 W/m² | - |
| 1787679340 | 21.11° C | 69% | 1017.8 hPa | 0 mm | - | 566 W/m² | - |
| 1787679036 | 20.56° C | 70% | 1018 hPa | 0 mm | - | 563 W/m² | - |
| 1787678736 | 20.56° C | 72% | 1017.9 hPa | 0 mm | - | 527 W/m² | - |
| 1787678431 | 20.56° C | 71% | 1017.9 hPa | 0 mm | - | 481 W/m² | - |
| 1787678125 | 20° C | 72% | 1017.9 hPa | 0 mm | - | 522 W/m² | - |
* Rain latest hour (hover to see other rain measurements)
** Current wind speed in m/s (hover to see current wind gust speed)